Řízení letového provozu České republiky
Letiste: LKPR Aktualizace: 27.05.2019 00:00:33  UTC
 METAR LKPR 27.05. 00:00 ...
METAR LKPR 270000Z 21007KT CAVOK 11/08 Q1012 NOSIG RMK REG QNH 1008=
 TAF LKPR 26.05. 23:00 ...
TAF LKPR 262300Z 2700/2806 23008KT CAVOK      BECMG 2713/2715 17006KT 9999 SCT043      BECMG 2717/2720 9000 -RA BKN035      BECMG 2800/2803 3500 RA SCT013 BKN020=